createdAt,value
2018-08-20T12:18:11.906Z,3.60
2018-08-20T12:20:40.424Z,2.63
2018-08-20T12:23:16.063Z,1.73
2018-08-20T12:28:17.829Z,3.40
2018-08-20T12:30:46.980Z,1.80
2018-08-20T12:33:15.480Z,1.67
2018-08-20T12:35:44.010Z,1.07
2018-08-20T12:38:12.420Z,3.73
2018-08-20T12:40:41.076Z,2.27
2018-08-20T12:43:09.582Z,1.80
2018-08-20T12:45:37.967Z,2.03
2018-08-20T12:48:10.194Z,2.77
2018-08-20T12:50:39.932Z,1.97
2018-08-20T12:53:13.099Z,1.17
2018-08-20T12:55:42.719Z,3.27
2018-08-20T12:58:17.668Z,1.07
2018-08-20T13:00:46.736Z,2.60
2018-08-20T13:03:15.866Z,2.00
2018-08-20T13:06:08.069Z,3.00
2018-08-20T13:08:40.265Z,2.87
2018-08-20T13:11:10.113Z,2.23
2018-08-20T13:13:40.077Z,1.40
2018-08-20T13:16:10.842Z,2.10
2018-08-20T13:18:43.975Z,1.13
2018-08-20T13:21:15.095Z,3.03
2018-08-20T13:26:30.006Z,2.17
2018-08-20T13:29:00.256Z,1.50
2018-08-20T13:31:29.930Z,2.03
2018-08-20T13:33:59.887Z,1.47
2018-08-20T13:36:36.157Z,0.60
2018-08-20T13:39:08.557Z,0.93
2018-08-20T13:41:38.550Z,1.93
2018-08-20T13:44:08.148Z,0.90
2018-08-20T13:46:43.286Z,0.97
2018-08-20T13:49:14.030Z,2.57
2018-08-20T13:51:43.980Z,0.97
2018-08-20T13:54:14.833Z,1.93
2018-08-20T13:56:44.091Z,0.73
2018-08-20T13:59:20.902Z,1.33
2018-08-20T14:01:53.768Z,0.70
2018-08-20T14:04:30.131Z,1.23
2018-08-20T14:07:04.340Z,1.43
2018-08-20T14:09:38.613Z,1.73
2018-08-20T14:12:12.181Z,1.07
2018-08-20T14:14:48.857Z,2.20
2018-08-20T14:17:19.697Z,1.53
2018-08-20T14:19:50.370Z,2.27
2018-08-20T14:22:20.323Z,1.40
2018-08-20T14:24:50.556Z,3.27
2018-08-20T14:27:30.400Z,1.20
2018-08-20T14:30:18.446Z,3.30
2018-08-20T14:32:53.901Z,1.70
2018-08-20T14:35:25.751Z,1.40
2018-08-20T14:37:59.259Z,1.47
2018-08-20T14:40:33.976Z,1.47
2018-08-20T14:43:04.887Z,1.70
2018-08-20T14:45:41.142Z,2.17
2018-08-20T14:48:14.629Z,2.57
2018-08-20T14:50:47.654Z,2.57
2018-08-20T14:53:29.671Z,3.10
2018-08-20T14:56:17.210Z,2.10
2018-08-20T14:58:48.737Z,2.43
2018-08-20T15:01:19.396Z,1.37
2018-08-20T15:04:03.181Z,4.20
2018-08-20T15:06:37.111Z,1.10
2018-08-20T15:09:07.776Z,1.70
2018-08-20T15:11:41.170Z,1.00
2018-08-20T15:14:11.946Z,2.63
2018-08-20T15:16:41.688Z,1.83
2018-08-20T15:19:13.074Z,1.53
2018-08-20T15:21:46.224Z,3.03
2018-08-20T15:24:20.754Z,1.33
2018-08-20T15:26:52.801Z,1.37
2018-08-20T15:29:24.125Z,4.27
2018-08-20T15:32:01.651Z,1.63
2018-08-20T15:34:35.045Z,2.70
2018-08-20T15:37:17.712Z,2.60
2018-08-20T15:39:50.553Z,1.20
2018-08-20T15:42:26.388Z,3.27
2018-08-20T15:44:59.785Z,2.37
2018-08-20T15:47:30.831Z,3.20
2018-08-20T15:50:00.945Z,2.87
2018-08-20T15:52:32.646Z,1.20
2018-08-20T15:55:03.966Z,1.73
2018-08-20T15:57:35.909Z,1.93
2018-08-20T16:00:07.573Z,1.80
2018-08-20T16:02:39.124Z,2.10
2018-08-20T16:05:09.970Z,2.63
2018-08-20T16:07:40.858Z,2.20
2018-08-20T16:10:11.735Z,1.37
2018-08-20T16:12:42.404Z,3.13
2018-08-20T16:15:11.895Z,1.57
2018-08-20T16:17:42.606Z,2.10
2018-08-20T16:20:11.361Z,1.43
2018-08-20T16:22:39.899Z,1.50
2018-08-20T16:25:08.657Z,1.90
2018-08-20T16:27:37.087Z,3.27
2018-08-20T16:30:08.451Z,1.73
2018-08-20T16:32:36.863Z,1.53
2018-08-20T16:35:06.111Z,1.00
2018-08-20T16:37:34.413Z,2.20
2018-08-20T16:40:03.019Z,2.40
2018-08-20T16:42:31.402Z,2.30
2018-08-20T16:44:59.729Z,2.07
2018-08-20T16:47:28.038Z,1.13
2018-08-20T16:49:56.360Z,2.47
2018-08-20T16:52:24.846Z,1.73
2018-08-20T16:57:46.571Z,2.30
2018-08-20T17:00:15.687Z,1.27
2018-08-20T17:02:44.681Z,1.70
2018-08-20T17:05:14.004Z,1.57
2018-08-20T17:07:42.472Z,2.33
2018-08-20T17:10:12.185Z,2.47
2018-08-20T17:12:41.748Z,2.73
2018-08-20T17:15:12.240Z,2.20
2018-08-20T17:17:40.593Z,1.20
2018-08-20T17:20:10.117Z,4.10
2018-08-20T17:22:38.508Z,2.93
2018-08-20T17:25:07.280Z,2.60
2018-08-20T17:27:35.656Z,1.97
2018-08-20T17:30:04.013Z,1.77
2018-08-20T17:32:32.388Z,3.90
2018-08-20T17:35:01.277Z,2.43
2018-08-20T17:37:29.592Z,1.27
2018-08-20T17:40:05.719Z,2.17
2018-08-20T17:42:34.485Z,4.40
2018-08-20T17:45:05.008Z,2.77
2018-08-20T17:47:35.433Z,1.77
2018-08-20T17:50:04.376Z,1.70
2018-08-20T17:52:40.037Z,2.63
2018-08-20T17:55:08.638Z,1.40
2018-08-20T17:57:37.130Z,2.53
2018-08-20T18:00:17.319Z,1.80
2018-08-20T18:02:45.695Z,2.87
2018-08-20T18:05:14.230Z,1.87
2018-08-20T18:07:42.785Z,3.20
2018-08-20T18:10:11.428Z,2.53
2018-08-20T18:12:39.953Z,2.50
2018-08-20T18:15:08.354Z,2.53
2018-08-20T18:17:36.791Z,1.57
2018-08-20T18:20:05.290Z,2.30
2018-08-20T18:22:36.260Z,3.13
2018-08-20T18:25:06.577Z,2.67
2018-08-20T18:27:41.693Z,2.63
2018-08-20T18:33:03.765Z,2.80
2018-08-20T18:35:36.384Z,2.33
2018-08-20T18:38:04.887Z,2.70
2018-08-20T18:40:34.893Z,2.23
2018-08-20T18:43:03.795Z,1.20
2018-08-20T18:45:33.637Z,3.63
2018-08-20T18:48:03.820Z,2.90
2018-08-20T18:50:34.305Z,3.33
2018-08-20T18:53:02.676Z,1.30
2018-08-20T18:55:33.442Z,3.47
2018-08-20T18:58:02.801Z,1.70
2018-08-20T19:00:31.886Z,2.63
2018-08-20T19:03:20.184Z,2.83
2018-08-20T19:05:53.572Z,1.63
2018-08-20T19:08:24.972Z,2.47
2018-08-20T19:10:54.483Z,2.63
2018-08-20T19:13:26.136Z,3.60
2018-08-20T19:15:55.120Z,4.63
2018-08-20T19:18:28.102Z,3.13
2018-08-20T19:20:57.110Z,5.20
2018-08-20T19:23:25.964Z,2.97
2018-08-20T19:25:56.081Z,7.03
2018-08-20T19:28:25.519Z,3.07
2018-08-20T19:30:55.489Z,2.70
2018-08-20T19:33:33.107Z,3.53
2018-08-20T19:36:02.545Z,4.40
2018-08-20T19:38:31.486Z,3.70
2018-08-20T19:41:11.984Z,3.33
2018-08-20T19:43:48.050Z,3.57
2018-08-20T19:49:08.446Z,2.80
2018-08-20T19:51:39.570Z,3.87
2018-08-20T19:54:09.080Z,3.63
2018-08-20T19:56:37.805Z,4.83
2018-08-20T19:59:06.968Z,3.43
2018-08-20T20:01:35.767Z,2.80
2018-08-20T20:04:04.257Z,3.47
2018-08-20T20:06:32.652Z,4.50
2018-08-20T20:09:06.603Z,3.63
2018-08-20T20:11:40.090Z,4.33
2018-08-20T20:14:08.523Z,3.90
2018-08-20T20:16:42.214Z,4.83
2018-08-20T20:19:11.249Z,3.17
2018-08-20T20:21:39.801Z,3.53
2018-08-20T20:26:35.959Z,6.37
2018-08-20T20:29:05.067Z,2.97
2018-08-20T20:31:33.477Z,4.63
2018-08-20T20:34:02.118Z,4.13
2018-08-20T20:36:31.869Z,3.83
2018-08-20T20:39:00.615Z,3.47
2018-08-20T20:41:29.382Z,3.57
2018-08-20T20:43:58.096Z,5.27
2018-08-20T20:46:26.884Z,7.20
2018-08-20T20:48:55.807Z,4.53
2018-08-20T20:51:24.387Z,6.70
2018-08-20T20:53:52.908Z,4.40
2018-08-20T20:56:21.478Z,4.03
2018-08-20T20:58:50.280Z,4.43
2018-08-20T21:01:18.754Z,5.03
2018-08-20T21:03:47.159Z,4.77
2018-08-20T21:06:15.581Z,5.87
2018-08-20T21:08:51.283Z,6.03
2018-08-20T21:11:21.299Z,7.37
2018-08-20T21:13:49.968Z,5.63
2018-08-20T21:16:22.456Z,4.97
2018-08-20T21:18:53.962Z,6.77
2018-08-20T21:21:23.106Z,6.83
2018-08-20T21:23:51.517Z,7.30
2018-08-20T21:26:19.954Z,8.73
2018-08-20T21:28:49.298Z,7.53
2018-08-20T21:31:18.947Z,7.93
2018-08-20T21:33:47.703Z,8.93
2018-08-20T21:36:16.358Z,8.10
2018-08-20T21:38:45.026Z,6.50
2018-08-20T21:41:13.525Z,8.60
2018-08-20T21:43:48.055Z,8.37
2018-08-20T21:46:16.798Z,11.33
2018-08-20T21:48:45.635Z,9.00
2018-08-20T21:51:19.993Z,11.47
2018-08-20T21:53:48.375Z,13.10
2018-08-20T21:56:17.268Z,9.50
2018-08-20T21:58:45.692Z,10.90
2018-08-20T22:01:15.351Z,9.27
2018-08-20T22:03:44.274Z,9.37
2018-08-20T22:06:13.223Z,14.63
2018-08-20T22:08:41.742Z,13.30
2018-08-20T22:11:11.023Z,11.07
2018-08-20T22:13:39.740Z,11.73
2018-08-20T22:16:18.986Z,12.63
2018-08-20T22:18:51.930Z,13.63
2018-08-20T22:21:20.403Z,11.77
2018-08-20T22:23:48.928Z,12.70
2018-08-20T22:26:18.969Z,12.80
2018-08-20T22:28:49.618Z,10.60
2018-08-20T22:31:18.299Z,9.87
2018-08-20T22:33:57.315Z,10.80
2018-08-20T22:36:26.774Z,13.40
2018-08-20T22:38:56.569Z,9.60
2018-08-20T22:41:26.355Z,10.00
2018-08-20T22:43:54.734Z,11.93
2018-08-20T22:46:23.757Z,10.60
2018-08-20T22:48:56.139Z,9.67
2018-08-20T22:51:25.336Z,11.43
2018-08-20T22:53:56.156Z,9.97
2018-08-20T22:56:27.316Z,9.80
2018-08-20T22:58:59.942Z,9.00
2018-08-20T23:01:28.612Z,9.10
2018-08-20T23:03:57.025Z,9.80
2018-08-20T23:06:26.011Z,11.73
2018-08-20T23:08:54.726Z,12.53
2018-08-20T23:11:37.869Z,8.60
2018-08-20T23:14:07.238Z,8.87
2018-08-20T23:16:35.819Z,10.17
2018-08-20T23:19:04.593Z,9.87
2018-08-20T23:21:37.211Z,11.97
2018-08-20T23:24:05.872Z,12.37
2018-08-20T23:26:37.941Z,12.60
2018-08-20T23:29:06.693Z,13.33
2018-08-20T23:31:35.076Z,13.13
2018-08-20T23:34:03.508Z,12.80
2018-08-20T23:36:39.156Z,11.23
2018-08-20T23:39:14.068Z,12.60
2018-08-20T23:41:44.541Z,13.90
2018-08-20T23:44:16.796Z,14.70
2018-08-20T23:46:49.618Z,15.70
2018-08-20T23:49:18.086Z,18.23
2018-08-20T23:51:52.381Z,17.80
2018-08-20T23:54:20.851Z,17.20
2018-08-20T23:56:51.332Z,17.40
2018-08-20T23:59:24.090Z,24.40
